createdAt,value
2019-03-12T00:01:03.614Z,77.73
2019-03-12T00:03:33.480Z,77.83
2019-03-12T00:06:03.428Z,77.72
2019-03-12T00:08:33.354Z,77.86
2019-03-12T00:11:03.632Z,78.09
2019-03-12T00:13:33.749Z,78.07
2019-03-12T00:16:03.718Z,77.73
2019-03-12T00:18:33.888Z,77.94
2019-03-12T00:21:03.752Z,77.76
2019-03-12T00:23:33.834Z,77.79
2019-03-12T00:26:04.057Z,78.05
2019-03-12T00:28:34.313Z,77.90
2019-03-12T00:31:04.488Z,77.93
2019-03-12T00:33:34.386Z,77.97
2019-03-12T00:36:04.304Z,78.27
2019-03-12T00:38:34.196Z,78.09
2019-03-12T00:41:04.145Z,78.13
2019-03-12T00:43:34.308Z,78.56
2019-03-12T00:46:04.244Z,78.44
2019-03-12T00:48:34.096Z,78.47
2019-03-12T00:51:03.938Z,78.31
2019-03-12T00:53:33.785Z,78.50
2019-03-12T00:56:03.713Z,78.37
2019-03-12T00:58:33.628Z,78.10
2019-03-12T01:01:03.568Z,78.30
2019-03-12T01:03:33.495Z,78.60
2019-03-12T01:06:03.355Z,78.87
2019-03-12T01:08:33.282Z,78.92
2019-03-12T01:11:03.075Z,78.89
2019-03-12T01:13:33.017Z,78.82
2019-03-12T01:16:02.896Z,78.81
2019-03-12T01:18:33.068Z,78.68
2019-03-12T01:21:02.919Z,78.98
2019-03-12T01:23:33.072Z,79.36
2019-03-12T01:26:03.035Z,79.63
2019-03-12T01:28:32.882Z,79.65
2019-03-12T01:31:02.818Z,79.93
2019-03-12T01:33:32.764Z,79.72
2019-03-12T01:36:02.842Z,79.64
2019-03-12T01:38:32.997Z,79.24
2019-03-12T01:41:03.209Z,79.21
2019-03-12T01:43:33.181Z,78.64
2019-03-12T01:46:03.316Z,78.74
2019-03-12T01:48:34.357Z,78.85
2019-03-12T01:51:04.302Z,78.83
2019-03-12T01:53:34.522Z,78.29
2019-03-12T01:56:04.742Z,78.26
2019-03-12T01:58:34.580Z,78.25
2019-03-12T02:01:04.638Z,78.00
2019-03-12T02:03:34.620Z,77.82
2019-03-12T02:06:04.571Z,77.94
2019-03-12T02:08:34.339Z,78.15
2019-03-12T02:11:04.266Z,78.30
2019-03-12T02:13:34.198Z,78.47
2019-03-12T02:16:05.594Z,78.39
2019-03-12T02:18:35.504Z,78.49
2019-03-12T02:21:05.449Z,78.31
2019-03-12T02:23:35.331Z,78.25
2019-03-12T02:26:05.595Z,77.83
2019-03-12T02:28:35.699Z,77.66
2019-03-12T02:31:05.613Z,77.64
2019-03-12T02:33:35.809Z,78.10
2019-03-12T02:36:05.782Z,77.99
2019-03-12T02:38:35.628Z,78.08
2019-03-12T02:41:05.681Z,78.27
2019-03-12T02:43:35.832Z,77.90
2019-03-12T02:46:05.781Z,77.50
2019-03-12T02:48:35.984Z,77.95
2019-03-12T02:51:05.944Z,77.83
2019-03-12T02:53:36.098Z,78.19
2019-03-12T02:56:06.099Z,78.63
2019-03-12T02:58:36.031Z,78.77
2019-03-12T03:01:07.385Z,79.00
2019-03-12T03:03:37.635Z,78.77
2019-03-12T03:06:17.109Z,78.91
2019-03-12T03:08:47.423Z,79.02
2019-03-12T03:11:17.284Z,79.09
2019-03-12T03:13:47.210Z,79.54
2019-03-12T03:16:17.172Z,79.67
2019-03-12T03:18:47.263Z,79.70
2019-03-12T03:21:17.408Z,79.82
2019-03-12T03:23:47.276Z,79.60
2019-03-12T03:26:17.241Z,79.71
2019-03-12T03:28:47.176Z,79.75
2019-03-12T03:31:17.101Z,79.22
2019-03-12T03:33:47.019Z,79.29
2019-03-12T03:36:17.809Z,79.20
2019-03-12T03:38:48.056Z,79.09
2019-03-12T03:41:18.054Z,78.57
2019-03-12T03:43:47.981Z,78.55
2019-03-12T03:46:18.076Z,78.61
2019-03-12T03:48:48.132Z,78.65
2019-03-12T03:51:19.310Z,78.78
2019-03-12T03:53:50.690Z,78.61
2019-03-12T03:56:21.672Z,78.57
2019-03-12T03:58:51.480Z,78.62
2019-03-12T04:01:21.675Z,78.85
2019-03-12T04:03:52.529Z,78.77
2019-03-12T04:06:22.825Z,78.70
2019-03-12T04:08:53.249Z,78.69
2019-03-12T04:11:23.195Z,78.75
2019-03-12T04:13:53.200Z,78.70
2019-03-12T04:16:23.419Z,78.33
2019-03-12T04:18:53.287Z,78.22
2019-03-12T04:21:23.248Z,78.12
2019-03-12T04:23:53.118Z,77.87
2019-03-12T04:26:23.383Z,77.86
2019-03-12T04:28:53.543Z,77.62
2019-03-12T04:31:24.928Z,77.53
2019-03-12T04:34:27.955Z,77.34
2019-03-12T04:36:57.838Z,77.03
2019-03-12T04:39:27.770Z,76.94
2019-03-12T04:41:57.982Z,76.72
2019-03-12T04:44:28.193Z,76.83
2019-03-12T04:46:58.139Z,76.62
2019-03-12T04:49:28.003Z,76.57
2019-03-12T04:51:57.834Z,76.39
2019-03-12T04:54:27.684Z,76.09
2019-03-12T04:56:57.540Z,75.94
2019-03-12T04:59:27.499Z,75.90
2019-03-12T05:01:57.446Z,75.88
2019-03-12T05:04:27.308Z,75.98
2019-03-12T05:06:57.541Z,75.93
2019-03-12T05:09:28.201Z,75.91
2019-03-12T05:11:58.126Z,75.74
2019-03-12T05:14:35.207Z,75.58
2019-03-12T05:17:12.914Z,75.49
2019-03-12T05:19:45.308Z,75.40
2019-03-12T05:22:16.399Z,75.21
2019-03-12T05:24:46.558Z,75.25
2019-03-12T05:27:17.554Z,75.29
2019-03-12T05:29:47.497Z,75.40
2019-03-12T05:32:18.481Z,75.22
2019-03-12T05:34:48.625Z,75.18
2019-03-12T05:37:19.962Z,74.99
2019-03-12T05:39:49.882Z,74.90
2019-03-12T05:42:19.762Z,74.88
2019-03-12T05:44:50.313Z,74.98
2019-03-12T05:47:20.174Z,75.09
2019-03-12T05:49:50.022Z,75.13
2019-03-12T05:52:20.153Z,74.82
2019-03-12T05:54:50.105Z,74.97
2019-03-12T05:57:20.297Z,74.81
2019-03-12T05:59:50.546Z,74.82
2019-03-12T06:02:20.560Z,74.83
2019-03-12T06:04:50.477Z,74.94
2019-03-12T06:07:20.693Z,74.96
2019-03-12T06:09:50.988Z,75.20
2019-03-12T06:12:22.117Z,75.33
2019-03-12T06:14:52.289Z,75.22
2019-03-12T06:17:22.231Z,75.34
2019-03-12T06:19:52.285Z,75.42
2019-03-12T06:22:22.132Z,75.54
2019-03-12T06:24:51.927Z,75.65
2019-03-12T06:27:22.049Z,75.55
2019-03-12T06:29:51.978Z,75.46
2019-03-12T06:32:37.365Z,75.34
2019-03-12T06:35:11.077Z,75.40
2019-03-12T06:38:01.201Z,75.36
2019-03-12T06:40:39.793Z,75.19
2019-03-12T06:43:30.259Z,75.02
2019-03-12T06:46:15.140Z,74.75
2019-03-12T06:49:07.762Z,74.26
2019-03-12T06:52:02.458Z,73.97
2019-03-12T06:54:48.499Z,73.94
2019-03-12T06:57:43.187Z,73.83
2019-03-12T07:00:32.409Z,73.64
2019-03-12T07:03:16.204Z,73.61
2019-03-12T07:05:56.947Z,73.39
2019-03-12T07:08:54.628Z,73.25
2019-03-12T07:11:42.125Z,73.24
2019-03-12T07:14:22.557Z,73.12
2019-03-12T07:17:01.423Z,72.97
2019-03-12T07:19:59.774Z,73.00
2019-03-12T07:22:55.638Z,72.97
2019-03-12T07:25:32.443Z,72.91
2019-03-12T07:28:24.022Z,72.42
2019-03-12T07:31:09.496Z,72.52
2019-03-12T07:33:52.348Z,72.48
2019-03-12T07:36:33.397Z,72.34
2019-03-12T07:39:26.794Z,72.56
2019-03-12T07:42:15.092Z,72.58
2019-03-12T07:45:02.626Z,72.53
2019-03-12T07:47:47.300Z,72.16
2019-03-12T07:50:42.708Z,71.80
2019-03-12T07:53:31.254Z,71.73
2019-03-12T07:56:19.432Z,71.84
2019-03-12T07:59:08.962Z,71.86
2019-03-12T08:01:57.326Z,71.60
2019-03-12T08:04:46.086Z,71.56
2019-03-12T08:07:34.933Z,71.91
2019-03-12T08:10:27.997Z,71.87
2019-03-12T08:13:12.642Z,71.72
2019-03-12T08:15:50.456Z,71.66
2019-03-12T08:18:35.575Z,71.70
2019-03-12T08:21:22.650Z,71.20
2019-03-12T08:24:02.295Z,71.36
2019-03-12T08:26:49.597Z,71.26
2019-03-12T08:29:30.392Z,70.13
2019-03-12T08:32:24.776Z,70.24
2019-03-12T08:35:19.595Z,69.72
2019-03-12T08:38:11.889Z,68.67
2019-03-12T08:41:03.794Z,68.24
2019-03-12T08:43:51.426Z,67.94
2019-03-12T08:46:52.445Z,68.03
2019-03-12T08:49:41.274Z,67.56
2019-03-12T08:52:21.133Z,66.39
2019-03-12T08:55:08.894Z,66.87
2019-03-12T08:57:58.231Z,67.13
2019-03-12T09:00:53.642Z,66.30
2019-03-12T09:03:54.725Z,66.21
2019-03-12T09:06:56.735Z,66.03
2019-03-12T09:09:48.490Z,65.99
2019-03-12T09:12:28.215Z,65.93
2019-03-12T09:15:20.364Z,64.53
2019-03-12T09:18:05.649Z,64.15
2019-03-12T09:20:54.476Z,63.75
2019-03-12T09:23:36.684Z,64.34
2019-03-12T09:26:24.868Z,64.82
2019-03-12T09:29:06.515Z,64.29
2019-03-12T09:32:07.844Z,64.54
2019-03-12T09:34:52.986Z,63.82
2019-03-12T09:37:28.584Z,64.02
2019-03-12T09:40:16.152Z,63.24
2019-03-12T09:43:07.984Z,63.36
2019-03-12T09:45:54.142Z,62.93
2019-03-12T09:48:46.912Z,62.80
2019-03-12T09:51:49.123Z,61.56
2019-03-12T09:54:40.678Z,60.88
2019-03-12T09:57:28.510Z,60.12
2019-03-12T10:00:16.096Z,61.23
2019-03-12T10:03:05.362Z,59.64
2019-03-12T10:05:45.780Z,60.30
2019-03-12T10:08:24.800Z,59.30
2019-03-12T10:10:59.428Z,59.94
2019-03-12T10:13:47.078Z,59.30
2019-03-12T10:16:48.465Z,59.07
2019-03-12T10:19:35.418Z,58.99
2019-03-12T10:22:23.346Z,58.69
2019-03-12T10:25:14.922Z,57.26
2019-03-12T10:27:54.425Z,57.16
2019-03-12T10:30:37.672Z,58.58
2019-03-12T10:33:23.045Z,58.93
2019-03-12T10:36:05.728Z,57.57
2019-03-12T10:39:23.269Z,57.77
2019-03-12T10:42:04.859Z,58.41
2019-03-12T10:44:43.181Z,56.92
2019-03-12T10:47:18.511Z,56.98
2019-03-12T10:49:49.968Z,57.65
2019-03-12T10:52:21.258Z,56.29
2019-03-12T10:54:51.191Z,56.61
2019-03-12T10:57:21.730Z,56.38
2019-03-12T10:59:51.661Z,56.36
2019-03-12T11:02:21.846Z,55.87
2019-03-12T11:04:51.956Z,55.60
2019-03-12T11:07:21.941Z,55.39
2019-03-12T11:09:51.898Z,55.29
2019-03-12T11:12:22.462Z,54.91
2019-03-12T11:14:52.471Z,55.84
2019-03-12T11:17:22.698Z,54.61
2019-03-12T11:19:52.865Z,54.72
2019-03-12T11:22:22.815Z,55.21
2019-03-12T11:24:53.837Z,54.55
2019-03-12T11:27:24.037Z,54.06
2019-03-12T11:29:53.905Z,53.83
2019-03-12T11:32:24.937Z,53.91
2019-03-12T11:34:54.832Z,53.92
2019-03-12T11:37:24.746Z,53.01
2019-03-12T11:39:54.732Z,53.56
2019-03-12T11:42:25.370Z,53.88
2019-03-12T11:44:55.354Z,54.43
2019-03-12T11:47:25.329Z,53.63
2019-03-12T11:49:55.121Z,50.89
2019-03-12T11:52:25.089Z,52.63
2019-03-12T11:54:55.017Z,53.29
2019-03-12T11:57:24.976Z,53.36
2019-03-12T11:59:54.752Z,52.88
2019-03-12T12:02:24.685Z,51.66
2019-03-12T12:04:54.537Z,51.96
2019-03-12T12:07:24.904Z,51.71
2019-03-12T12:09:54.791Z,52.67
2019-03-12T12:12:25.049Z,52.30
2019-03-12T12:14:54.830Z,50.71
2019-03-12T12:17:24.785Z,51.02
2019-03-12T12:19:54.702Z,51.45
2019-03-12T12:22:24.628Z,50.58
2019-03-12T12:24:54.906Z,51.61
2019-03-12T12:27:24.817Z,51.60
2019-03-12T12:29:54.598Z,50.85
2019-03-12T12:32:24.597Z,50.99
2019-03-12T12:34:54.529Z,51.37
2019-03-12T12:37:24.444Z,51.55
2019-03-12T12:39:54.226Z,50.99
2019-03-12T12:42:24.169Z,50.86
2019-03-12T12:44:54.103Z,50.85
2019-03-12T12:47:23.981Z,52.16
2019-03-12T12:49:54.283Z,51.75
2019-03-12T12:52:24.214Z,51.34
2019-03-12T12:54:54.310Z,51.37
2019-03-12T12:57:24.178Z,50.80
2019-03-12T12:59:54.025Z,50.96
2019-03-12T13:02:23.984Z,50.37
2019-03-12T13:04:53.905Z,50.03
2019-03-12T13:07:23.780Z,49.81
2019-03-12T13:09:53.722Z,50.06
2019-03-12T13:12:23.677Z,49.21
2019-03-12T13:14:53.942Z,48.38
2019-03-12T13:17:25.299Z,48.56
2019-03-12T13:19:55.215Z,48.97
2019-03-12T13:22:25.123Z,48.69
2019-03-12T13:24:55.348Z,49.18
2019-03-12T13:27:25.275Z,49.40
2019-03-12T13:29:55.155Z,48.71
2019-03-12T13:32:25.271Z,49.26
2019-03-12T13:34:55.268Z,49.01
2019-03-12T13:37:25.212Z,48.96
2019-03-12T13:39:55.444Z,48.99
2019-03-12T13:42:25.403Z,48.29
2019-03-12T13:44:55.676Z,48.59
2019-03-12T13:47:28.690Z,47.51
2019-03-12T13:49:59.297Z,47.90
2019-03-12T13:52:29.158Z,48.55
2019-03-12T13:54:58.949Z,48.84
2019-03-12T13:57:28.798Z,48.43
2019-03-12T13:59:58.746Z,48.09
2019-03-12T14:02:28.978Z,47.04
2019-03-12T14:04:58.909Z,47.94
2019-03-12T14:07:29.108Z,47.78
2019-03-12T14:09:59.032Z,48.28
2019-03-12T14:12:29.325Z,47.39
2019-03-12T14:14:59.209Z,48.29
2019-03-12T14:17:29.214Z,48.01
2019-03-12T14:20:22.967Z,47.11
2019-03-12T14:22:52.938Z,47.47
2019-03-12T14:25:22.892Z,47.86
2019-03-12T14:27:52.892Z,47.92
2019-03-12T14:30:23.119Z,48.41
2019-03-12T14:32:53.046Z,48.14
2019-03-12T14:35:22.985Z,48.05
2019-03-12T14:37:52.928Z,48.23
2019-03-12T14:40:23.085Z,48.05
2019-03-12T14:42:52.950Z,48.16
2019-03-12T14:45:27.228Z,47.61
2019-03-12T14:47:58.356Z,48.10
2019-03-12T14:50:28.681Z,48.27
2019-03-12T14:53:03.454Z,47.70
2019-03-12T14:55:33.472Z,47.84
2019-03-12T14:58:03.950Z,48.45
2019-03-12T15:00:34.405Z,47.67
2019-03-12T15:03:04.311Z,47.33
2019-03-12T15:05:34.488Z,47.67
2019-03-12T15:08:06.128Z,47.66
2019-03-12T15:10:36.074Z,47.95
2019-03-12T15:13:05.988Z,47.48
2019-03-12T15:15:36.128Z,46.87
2019-03-12T15:18:06.359Z,47.07
2019-03-12T15:20:36.655Z,47.73
2019-03-12T15:23:06.688Z,47.23
2019-03-12T15:25:37.352Z,46.84
2019-03-12T15:28:07.507Z,46.54
2019-03-12T15:30:39.497Z,46.60
2019-03-12T15:33:09.532Z,46.01
2019-03-12T15:35:39.464Z,46.08
2019-03-12T15:38:09.311Z,45.81
2019-03-12T15:40:39.104Z,46.09
2019-03-12T15:43:09.105Z,45.42
2019-03-12T15:45:38.898Z,46.13
2019-03-12T15:48:09.747Z,46.31
2019-03-12T15:50:39.700Z,45.72
2019-03-12T15:53:09.938Z,45.60
2019-03-12T15:55:39.876Z,46.02
2019-03-12T15:58:09.987Z,45.43
2019-03-12T16:00:40.123Z,45.32
2019-03-12T16:03:10.501Z,45.85
2019-03-12T16:05:40.589Z,45.12
2019-03-12T16:08:10.513Z,44.29
2019-03-12T16:10:40.459Z,44.50
2019-03-12T16:13:10.387Z,43.71
2019-03-12T16:15:40.639Z,43.80
2019-03-12T16:18:10.542Z,44.56
2019-03-12T16:20:41.896Z,44.75
2019-03-12T16:23:11.812Z,44.60
2019-03-12T16:25:43.067Z,44.64
2019-03-12T16:28:13.279Z,44.77
2019-03-12T16:30:43.533Z,45.01
2019-03-12T16:33:13.527Z,45.46
2019-03-12T16:35:43.456Z,45.03
2019-03-12T16:38:13.403Z,46.22
2019-03-12T16:40:43.349Z,45.25
2019-03-12T16:43:13.576Z,45.52
2019-03-12T16:45:43.519Z,45.64
2019-03-12T16:48:13.458Z,45.62
2019-03-12T16:50:43.338Z,45.74
2019-03-12T16:53:13.558Z,45.38
2019-03-12T16:55:44.465Z,45.58
2019-03-12T16:58:14.493Z,44.61
2019-03-12T17:00:44.440Z,45.02
2019-03-12T17:03:14.483Z,44.99
2019-03-12T17:05:44.334Z,44.53
2019-03-12T17:08:14.267Z,44.88
2019-03-12T17:10:54.793Z,44.61
2019-03-12T17:13:15.783Z,44.28
2019-03-12T17:15:45.561Z,44.14
2019-03-12T17:18:15.480Z,44.11
2019-03-12T17:20:45.393Z,43.95
2019-03-12T17:23:15.326Z,43.88
2019-03-12T17:25:45.099Z,44.17
2019-03-12T17:28:15.024Z,43.97
2019-03-12T17:30:44.883Z,43.80
2019-03-12T17:33:14.936Z,43.80
2019-03-12T17:35:44.977Z,44.76
2019-03-12T17:38:14.879Z,43.25
2019-03-12T17:40:44.860Z,43.72
2019-03-12T17:43:15.021Z,43.36
2019-03-12T17:45:45.420Z,43.41
2019-03-12T17:48:15.356Z,44.12
2019-03-12T17:50:45.368Z,43.59
2019-03-12T17:53:15.371Z,43.19
2019-03-12T17:55:45.732Z,42.73
2019-03-12T17:58:15.820Z,44.29
2019-03-12T18:00:46.138Z,43.78
2019-03-12T18:03:16.129Z,43.88
2019-03-12T18:05:46.078Z,42.68
2019-03-12T18:08:16.014Z,42.68
2019-03-12T18:10:46.179Z,42.90
2019-03-12T18:13:17.417Z,42.46
2019-03-12T18:15:47.682Z,43.09
2019-03-12T18:18:17.994Z,42.95
2019-03-12T18:20:48.294Z,43.01
2019-03-12T18:23:20.069Z,43.23
2019-03-12T18:25:50.424Z,42.65
2019-03-12T18:28:22.210Z,42.69
2019-03-12T18:30:52.420Z,42.93
2019-03-12T18:33:22.336Z,43.38
2019-03-12T18:35:52.720Z,43.17
2019-03-12T18:38:22.662Z,42.94
2019-03-12T18:40:52.613Z,42.96
2019-03-12T18:43:22.821Z,43.23
2019-03-12T18:45:52.990Z,42.95
2019-03-12T18:48:23.105Z,43.08
2019-03-12T18:50:53.115Z,43.04
2019-03-12T18:53:23.448Z,43.25
2019-03-12T18:56:07.357Z,43.15
2019-03-12T18:58:37.277Z,43.43
2019-03-12T19:01:09.515Z,43.37
2019-03-12T19:03:39.447Z,43.71
2019-03-12T19:06:10.170Z,43.17
2019-03-12T19:08:47.519Z,43.08
2019-03-12T19:11:12.317Z,43.24
2019-03-12T19:13:43.352Z,43.41
2019-03-12T19:16:13.671Z,43.43
2019-03-12T19:18:43.724Z,43.84
2019-03-12T19:21:13.651Z,43.51
2019-03-12T19:23:43.592Z,43.74
2019-03-12T19:26:13.832Z,49.16
2019-03-12T19:28:43.752Z,49.41
2019-03-12T19:31:31.601Z,49.26
2019-03-12T19:34:08.815Z,48.71
2019-03-12T19:36:38.815Z,50.43
2019-03-12T19:39:10.551Z,50.16
2019-03-12T19:41:40.775Z,50.72
2019-03-12T19:44:10.709Z,51.01
2019-03-12T19:46:40.656Z,51.78
2019-03-12T19:49:10.615Z,53.61
2019-03-12T19:51:41.228Z,53.21
2019-03-12T19:54:11.294Z,52.37
2019-03-12T19:56:41.382Z,52.41
2019-03-12T19:59:11.765Z,52.08
2019-03-12T20:01:44.444Z,52.04
2019-03-12T20:04:14.735Z,51.69
2019-03-12T20:06:44.982Z,51.30
2019-03-12T20:09:43.732Z,51.32
2019-03-12T20:13:01.780Z,50.71
2019-03-12T20:16:11.831Z,50.70
2019-03-12T20:19:25.812Z,50.08
2019-03-12T20:22:48.845Z,50.54
2019-03-12T20:25:46.720Z,50.61
2019-03-12T20:28:57.899Z,50.38
2019-03-12T20:32:04.138Z,50.69
2019-03-12T20:35:17.078Z,51.02
2019-03-12T20:38:36.514Z,51.17
2019-03-12T20:41:48.262Z,51.50
2019-03-12T20:44:57.824Z,52.30
2019-03-12T20:48:02.527Z,53.54
2019-03-12T20:51:08.708Z,54.36
2019-03-12T20:54:26.726Z,56.54
2019-03-12T20:57:39.848Z,56.54
2019-03-12T21:00:41.355Z,57.37
2019-03-12T21:03:48.111Z,58.54
2019-03-12T21:07:02.459Z,59.31
2019-03-12T21:10:00.695Z,60.48
2019-03-12T21:13:10.470Z,61.11
2019-03-12T21:16:11.654Z,62.79
2019-03-12T21:19:30.952Z,66.45
2019-03-12T21:22:28.110Z,71.15
2019-03-12T21:25:19.682Z,75.06
2019-03-12T21:28:25.408Z,77.96
2019-03-12T21:30:55.736Z,80.54
2019-03-12T21:33:25.667Z,79.95
2019-03-12T21:35:55.614Z,82.24
2019-03-12T21:38:25.561Z,83.77
2019-03-12T21:40:55.482Z,84.56
2019-03-12T21:43:25.323Z,84.79
2019-03-12T21:45:55.240Z,85.29
2019-03-12T21:48:26.470Z,85.43
2019-03-12T21:50:58.422Z,85.66
2019-03-12T21:53:28.567Z,86.21
2019-03-12T21:55:58.486Z,86.21
2019-03-12T21:58:28.438Z,86.21
2019-03-12T22:00:58.386Z,86.63
2019-03-12T22:03:28.582Z,86.20
2019-03-12T22:05:59.709Z,86.17
2019-03-12T22:08:29.670Z,85.64
2019-03-12T22:10:59.558Z,86.54
2019-03-12T22:13:29.778Z,86.39
2019-03-12T22:15:59.545Z,85.69
2019-03-12T22:18:29.510Z,85.55
2019-03-12T22:20:59.632Z,85.85
2019-03-12T22:23:34.267Z,85.29
2019-03-12T22:26:04.298Z,85.42
2019-03-12T22:28:34.507Z,85.36
2019-03-12T22:31:04.437Z,85.20
2019-03-12T22:33:34.275Z,84.86
2019-03-12T22:36:04.577Z,84.81
2019-03-12T22:38:36.123Z,84.55
2019-03-12T22:41:06.347Z,84.85
2019-03-12T22:43:36.547Z,84.83
2019-03-12T22:46:07.099Z,83.82
2019-03-12T22:48:36.938Z,83.74
2019-03-12T22:51:06.777Z,83.48
2019-03-12T22:53:36.634Z,83.34
2019-03-12T22:56:06.483Z,83.55
2019-03-12T22:58:36.346Z,83.29
2019-03-12T23:01:24.034Z,83.62
2019-03-12T23:04:11.875Z,83.52
2019-03-12T23:06:59.299Z,83.13
2019-03-12T23:09:43.701Z,83.10
2019-03-12T23:12:16.825Z,83.28
2019-03-12T23:14:49.037Z,83.46
2019-03-12T23:17:20.605Z,82.86
2019-03-12T23:19:50.826Z,82.70
2019-03-12T23:22:22.307Z,82.87
2019-03-12T23:24:52.266Z,82.99
2019-03-12T23:27:22.623Z,83.18
2019-03-12T23:29:53.313Z,83.16
2019-03-12T23:32:23.283Z,83.53
2019-03-12T23:34:53.135Z,83.81
2019-03-12T23:37:22.993Z,83.98
2019-03-12T23:39:52.920Z,83.76
2019-03-12T23:42:22.882Z,83.79
2019-03-12T23:44:53.054Z,84.10
2019-03-12T23:47:22.837Z,84.21
2019-03-12T23:49:52.683Z,84.64
2019-03-12T23:52:22.635Z,83.76
2019-03-12T23:54:52.576Z,83.78
2019-03-12T23:57:22.743Z,83.38
2019-03-12T23:59:52.681Z,82.58
